| time (UTC) | temp F | wind direction | speed knots | gust knots | rain 1hr in | rain 24hr in | rain mn in | humidity % | barometer mb |
| 20260906211957 | 94 | 345 | 0.9 | 0.9 | 0.00 | 0.00 | 0.00 | 36 | 1018.3 |
| 20260906210953 | 94 | 14 | 0.0 | 0.9 | 0.00 | 0.00 | 0.00 | 35 | 1018.6 |
| 20260906205953 | 94 | 329 | 0.9 | 1.7 | 0.00 | 0.00 | 0.00 | 38 | 1018.6 |
| 20260906204952 | 93 | 2 | 0.9 | 0.9 | 0.00 | 0.00 | 0.00 | 39 | 1018.7 |
| 20260906203950 | 92 | 36 | 0.9 | 0.9 | 0.00 | 0.00 | 0.00 | 40 | 1018.9 |
| 20260906202949 | 92 | 6 | 0.9 | 0.9 | 0.00 | 0.00 | 0.00 | 40 | 1019.0 |
| 20260906201943 | 91 | 5 | 1.7 | 1.7 | 0.00 | 0.00 | 0.00 | 43 | 1019.1 |
| 20260906200944 | 89 | 346 | 0.9 | 0.9 | 0.00 | 0.00 | 0.00 | 46 | 1019.1 |
| 20260906195940 | 89 | 25 | 0.0 | 0.9 | 0.00 | 0.00 | 0.00 | 46 | 1019.6 |
| 20260906194938 | 89 | 353 | 0.9 | 0.9 | 0.00 | 0.00 | 0.00 | 46 | 1019.4 |
| 20260906193935 | 87 | 4 | 0.9 | 0.9 | 0.00 | 0.00 | 0.00 | 47 | 1019.4 |
| 20260906192931 | 87 | 350 | 0.0 | 0.9 | 0.00 | 0.00 | 0.00 | 46 | 1019.6 |
| 20260906191931 | 87 | 342 | 0.9 | 0.9 | 0.00 | 0.00 | 0.00 | 47 | 1019.8 |
| 20260906190925 | 87 | 321 | 0.9 | 1.7 | 0.00 | 0.00 | 0.00 | 46 | 1020.1 |
| 20260906185924 | 87 | 194 | 1.7 | 1.7 | 0.00 | 0.00 | 0.00 | 47 | 1020.1 |
| 20260906184922 | 87 | 10 | 0.9 | 0.9 | 0.00 | 0.00 | 0.00 | 46 | 1020.6 |
| 20260906183919 | 84 | 70 | 0.9 | 1.7 | 0.00 | 0.00 | 0.00 | 52 | 1020.8 |
| 20260906182916 | 85 | 356 | 0.0 | 0.9 | 0.00 | 0.00 | 0.00 | 51 | 1020.8 |
| 20260906181913 | 82 | 31 | 0.0 | 0.9 | 0.00 | 0.00 | 0.00 | 54 | 1021.0 |
| 20260906180910 | 82 | 134 | 2.6 | 2.6 | 0.00 | 0.00 | 0.00 | 53 | 1021.1 |
| 20260906175909 | 80 | 346 | 1.7 | 1.7 | 0.00 | 0.00 | 0.00 | 57 | 1021.3 |
| 20260906174908 | 83 | 171 | 0.9 | 1.7 | 0.00 | 0.00 | 0.00 | 54 | 1021.8 |
| 20260906173909 | 80 | 119 | 1.7 | 1.7 | 0.00 | 0.00 | 0.00 | 57 | 1021.7 |
| 20260906172903 | 82 | 75 | 0.9 | 0.9 | 0.00 | 0.00 | 0.00 | 55 | 1022.2 |
| 20260906171900 | 80 | 86 | 0.9 | 0.9 | 0.00 | 0.00 | 0.00 | 57 | 1022.3 |
| 20260906170857 | 79 | 60 | 0.9 | 0.9 | 0.00 | 0.00 | 0.00 | 61 | 1022.6 |
| 20260906165855 | 78 | 29 | 0.9 | 0.9 | 0.00 | 0.00 | 0.00 | 61 | 1022.3 |
| 20260906164855 | 78 | 289 | 0.0 | 0.9 | 0.00 | 0.00 | 0.00 | 61 | 1022.6 |
| 20260906163850 | 78 | 345 | 0.9 | 0.9 | 0.00 | 0.00 | 0.00 | 62 | 1022.6 |
| 20260906162850 | 78 | 139 | 2.6 | 2.6 | 0.00 | 0.00 | 0.00 | 61 | 1022.4 |
| 20260906161850 | 77 | 345 | 0.0 | 0.0 | 0.00 | 0.00 | 0.00 | 63 | 1022.3 |
| 20260906160848 | 75 | 346 | 1.7 | 1.7 | 0.00 | 0.00 | 0.00 | 67 | 1022.4 |
| 20260906155846 | 75 | 344 | 0.9 | 0.9 | 0.00 | 0.00 | 0.00 | 66 | 1022.4 |
| 20260906154843 | 73 | 346 | 0.9 | 0.9 | 0.00 | 0.00 | 0.00 | 68 | 1022.6 |
| 20260906153842 | 72 | 346 | 0.9 | 0.9 | 0.00 | 0.00 | 0.00 | 69 | 1022.7 |
| 20260906152836 | 73 | 346 | 0.9 | 1.7 | 0.00 | 0.00 | 0.00 | 69 | 1022.7 |
| 20260906151836 | 73 | 28 | 0.9 | 0.9 | 0.00 | 0.00 | 0.00 | 66 | 1022.7 |
| 20260906150833 | 71 | 350 | 0.0 | 0.0 | 0.00 | 0.00 | 0.00 | 71 | 1023.0 |
| 20260906145833 | 71 | 350 | 0.9 | 0.9 | 0.00 | 0.00 | 0.00 | 69 | 1022.8 |
| 20260906144833 | 69 | 346 | 0.9 | 0.9 | 0.00 | 0.00 | 0.00 | 72 | 1023.0 |
| 20260906143828 | 67 | 47 | 0.0 | 0.9 | 0.00 | 0.00 | 0.00 | 73 | 1022.7 |
| 20260906142826 | 65 | 9 | 0.0 | 0.0 | 0.00 | 0.00 | 0.00 | 80 | 1022.6 |
| 20260906141826 | 65 | 345 | 0.0 | 0.0 | 0.00 | 0.00 | 0.00 | 80 | 1022.8 |
| 20260906140825 | 64 | 315 | 0.9 | 1.7 | 0.00 | 0.00 | 0.00 | 80 | 1022.8 |
| 20260906135824 | 62 | 335 | 0.0 | 0.0 | 0.00 | 0.00 | 0.00 | 81 | 1022.6 |
| 20260906134820 | 61 | 3 | 0.0 | 0.0 | 0.00 | 0.00 | 0.00 | 82 | 1022.7 |
| 20260906133817 | 60 | 343 | 0.0 | 0.0 | 0.00 | 0.00 | 0.00 | 85 | 1022.8 |
| 20260906132813 | 59 | 345 | 0.0 | 0.0 | 0.00 | 0.00 | 0.00 | 85 | 1022.7 |
| 20260906131810 | 59 | 345 | 0.0 | 0.0 | 0.00 | 0.00 | 0.00 | 84 | 1022.6 |
| 20260906130807 | 59 | 338 | 0.0 | 0.0 | 0.00 | 0.00 | 0.00 | 85 | 1022.6 |
| 20260906125805 | 58 | 341 | 0.0 | 0.0 | 0.00 | 0.00 | 0.00 | 85 | 1022.6 |
| 20260906124804 | 59 | 342 | 0.0 | 0.0 | 0.00 | 0.00 | 0.00 | 85 | 1022.5 |
| 20260906123758 | 59 | 348 | 0.0 | 0.0 | 0.00 | 0.00 | 0.00 | 85 | 1022.7 |
| 20260906122753 | 59 | 348 | 0.0 | 0.0 | 0.00 | 0.00 | 0.00 | 86 | 1022.5 |
| 20260906121751 | 59 | 347 | 0.0 | 0.0 | 0.00 | 0.00 | 0.00 | 86 | 1022.7 |
| 20260906120748 | 59 | 350 | 0.0 | 0.0 | 0.00 | 0.00 | 0.00 | 86 | 1022.5 |
| 20260906115746 | 59 | 345 | 0.0 | 0.0 | 0.00 | 0.00 | 0.00 | 87 | 1022.6 |
| 20260906114746 | 60 | 347 | 0.0 | 0.0 | 0.00 | 0.00 | 0.00 | 86 | 1022.5 |
| 20260906113743 | 60 | 346 | 0.0 | 0.0 | 0.00 | 0.00 | 0.00 | 86 | 1022.5 |
| 20260906112742 | 60 | 338 | 0.0 | 0.0 | 0.00 | 0.00 | 0.00 | 86 | 1022.4 |
| 20260906111738 | 60 | 349 | 0.0 | 0.0 | 0.00 | 0.00 | 0.00 | 86 | 1022.4 |
| 20260906110734 | 61 | 343 | 0.0 | 0.0 | 0.00 | 0.00 | 0.00 | 85 | 1022.4 |
| 20260906105733 | 62 | 337 | 0.0 | 0.0 | 0.00 | 0.00 | 0.00 | 84 | 1022.4 |
| 20260906104730 | 62 | 340 | 0.0 | 0.0 | 0.00 | 0.00 | 0.00 | 81 | 1022.2 |
| 20260906103727 | 61 | 348 | 0.0 | 0.0 | 0.00 | 0.00 | 0.00 | 80 | 1022.2 |
| 20260906102723 | 61 | 348 | 0.0 | 0.0 | 0.00 | 0.00 | 0.00 | 78 | 1022.0 |
| 20260906101723 | 61 | 349 | 0.0 | 0.0 | 0.00 | 0.00 | 0.00 | 78 | 1022.3 |
| 20260906100720 | 62 | 344 | 0.0 | 0.0 | 0.00 | 0.00 | 0.00 | 78 | 1022.4 |
| 20260906095720 | 62 | 349 | 0.0 | 0.0 | 0.00 | 0.00 | 0.00 | 78 | 1022.0 |
| 20260906094720 | 62 | 344 | 0.0 | 0.0 | 0.00 | 0.00 | 0.00 | 77 | 1021.9 |
| 20260906093718 | 63 | 343 | 0.0 | 0.0 | 0.00 | 0.00 | 0.00 | 76 | 1022.0 |
| 20260906092714 | 63 | 337 | 0.0 | 0.0 | 0.00 | 0.00 | 0.00 | 75 | 1021.6 |
| 20260906091710 | 64 | 350 | 0.0 | 0.0 | 0.00 | 0.00 | 0.00 | 73 | 1021.7 |
| 20260906090708 | 64 | 349 | 0.0 | 0.0 | 0.00 | 0.00 | 0.00 | 73 | 1021.6 |
| 20260906085707 | 64 | 346 | 0.0 | 0.0 | 0.00 | 0.00 | 0.00 | 72 | 1021.6 |
| 20260906084706 | 65 | 347 | 0.0 | 0.0 | 0.00 | 0.00 | 0.00 | 71 | 1021.5 |
| 20260906083701 | 65 | 348 | 0.0 | 0.0 | 0.00 | 0.00 | 0.00 | 71 | 1021.5 |
| 20260906082657 | 65 | 350 | 0.0 | 0.0 | 0.00 | 0.00 | 0.00 | 70 | 1021.6 |
| 20260906081655 | 65 | 350 | 0.0 | 0.0 | 0.00 | 0.00 | 0.00 | 71 | 1021.8 |
| 20260906080652 | 65 | 346 | 0.0 | 0.0 | 0.00 | 0.00 | 0.00 | 69 | 1021.8 |
| 20260906075648 | 66 | 343 | 0.0 | 0.0 | 0.00 | 0.00 | 0.00 | 68 | 1021.7 |
| 20260906074643 | 66 | 352 | 0.0 | 0.0 | 0.00 | 0.00 | 0.00 | 68 | 1021.3 |
| 20260906073643 | 66 | 349 | 0.0 | 0.9 | 0.00 | 0.00 | 0.00 | 67 | 1021.5 |
| 20260906072640 | 66 | 353 | 0.0 | 0.9 | 0.00 | 0.00 | 0.00 | 65 | 1021.7 |
| 20260906071638 | 65 | 352 | 0.9 | 0.9 | 0.00 | 0.00 | 0.00 | 65 | 1021.7 |
| 20260906070634 | 65 | 350 | 0.0 | 0.0 | 0.00 | 0.00 | 0.00 | 65 | 1021.9 |
| 20260906065629 | 65 | 348 | 0.0 | 0.0 | 0.00 | 0.00 | 0.00 | 67 | 1021.9 |
| 20260906064626 | 66 | 346 | 0.0 | 0.0 | 0.00 | 0.00 | 0.00 | 66 | 1021.6 |
| 20260906063621 | 67 | 346 | 0.0 | 0.0 | 0.00 | 0.00 | 0.00 | 64 | 1022.3 |
| 20260906062619 | 67 | 336 | 0.0 | 0.0 | 0.00 | 0.00 | 0.00 | 64 | 1021.8 |
| 20260906061614 | 67 | 339 | 0.0 | 0.0 | 0.00 | 0.00 | 0.00 | 64 | 1021.7 |
| 20260906060610 | 67 | 353 | 0.0 | 0.0 | 0.00 | 0.00 | 0.00 | 63 | 1021.8 |
| 20260906055608 | 67 | 347 | 0.0 | 0.0 | 0.00 | 0.00 | 0.00 | 63 | 1021.5 |
| 20260906054604 | 68 | 343 | 0.0 | 0.0 | 0.00 | 0.00 | 0.00 | 60 | 1021.8 |
| 20260906053601 | 68 | 345 | 0.0 | 0.0 | 0.00 | 0.00 | 0.00 | 60 | 1021.8 |
| 20260906052558 | 68 | 342 | 0.0 | 0.0 | 0.00 | 0.00 | 0.00 | 57 | 1021.8 |
| 20260906051556 | 69 | 335 | 0.0 | 0.9 | 0.00 | 0.00 | 0.00 | 57 | 1021.6 |
| 20260906050552 | 69 | 349 | 0.9 | 0.9 | 0.00 | 0.00 | 0.00 | 57 | 1021.6 |
| 20260906045551 | 68 | 335 | 0.0 | 0.9 | 0.00 | 0.00 | 0.00 | 56 | 1021.0 |
| 20260906044548 | 69 | 334 | 0.0 | 0.0 | 0.00 | 0.00 | 0.00 | 57 | 1020.6 |
| 20260906043545 | 69 | 342 | 0.0 | 0.0 | 0.00 | 0.00 | 0.00 | 57 | 1020.8 |
| 20260906042545 | 70 | 357 | 0.0 | 0.0 | 0.00 | 0.00 | 0.00 | 55 | 1020.5 |
| 20260906041542 | 71 | 350 | 0.0 | 0.0 | 0.00 | 0.00 | 0.00 | 54 | 1020.2 |
| 20260906040537 | 72 | 345 | 0.0 | 0.0 | 0.00 | 0.00 | 0.00 | 52 | 1020.3 |
| 20260906035534 | 72 | 332 | 0.0 | 0.0 | 0.00 | 0.00 | 0.00 | 52 | 1020.3 |
| 20260906034530 | 72 | 340 | 0.0 | 0.0 | 0.00 | 0.00 | 0.00 | 51 | 1020.4 |
| 20260906033526 | 73 | 346 | 0.0 | 0.0 | 0.00 | 0.00 | 0.00 | 50 | 1020.4 |
| 20260906032524 | 74 | 347 | 0.0 | 0.0 | 0.00 | 0.00 | 0.00 | 49 | 1020.3 |
| 20260906031520 | 74 | 351 | 0.0 | 0.9 | 0.00 | 0.00 | 0.00 | 48 | 1020.4 |
| 20260906030514 | 75 | 353 | 0.0 | 0.0 | 0.00 | 0.00 | 0.00 | 47 | 1020.2 |
| 20260906025513 | 75 | 351 | 0.0 | 0.0 | 0.00 | 0.00 | 0.00 | 47 | 1020.4 |
| 20260906024513 | 76 | 348 | 0.0 | 0.9 | 0.00 | 0.00 | 0.00 | 45 | 1019.8 |
| 20260906023509 | 76 | 15 | 0.0 | 0.0 | 0.00 | 0.00 | 0.00 | 45 | 1019.8 |
| 20260906022505 | 77 | 351 | 0.0 | 0.0 | 0.00 | 0.00 | 0.00 | 46 | 1019.8 |
| 20260906021501 | 77 | 347 | 0.0 | 0.0 | 0.00 | 0.00 | 0.00 | 42 | 1019.6 |
| 20260906020456 | 78 | 12 | 0.0 | 0.9 | 0.00 | 0.00 | 0.00 | 42 | 1019.4 |
| 20260906015455 | 78 | 343 | 0.0 | 0.0 | 0.00 | 0.00 | 0.00 | 41 | 1019.3 |
| 20260906014455 | 78 | 358 | 0.0 | 0.0 | 0.00 | 0.00 | 0.00 | 41 | 1019.0 |
| 20260906013452 | 79 | 350 | 0.0 | 0.9 | 0.00 | 0.00 | 0.00 | 40 | 1019.3 |
| 20260906012448 | 80 | 350 | 0.9 | 0.9 | 0.00 | 0.00 | 0.00 | 40 | 1019.4 |
| 20260906011443 | 81 | 341 | 0.0 | 0.0 | 0.00 | 0.00 | 0.00 | 38 | 1019.4 |
| 20260906010439 | 81 | 341 | 0.0 | 0.0 | 0.00 | 0.00 | 0.00 | 38 | 1019.3 |
| 20260906005435 | 82 | 347 | 1.7 | 2.6 | 0.00 | 0.00 | 0.00 | 37 | 1019.5 |
| 20260906004434 | 82 | 315 | 0.9 | 1.7 | 0.00 | 0.00 | 0.00 | 37 | 1019.4 |
| 20260906003430 | 83 | 342 | 0.9 | 0.9 | 0.00 | 0.00 | 0.00 | 36 | 1019.5 |
| 20260906002425 | 84 | 324 | 1.7 | 1.7 | 0.00 | 0.00 | 0.00 | 36 | 1019.5 |
| 20260906001421 | 86 | 313 | 0.9 | 0.9 | 0.00 | 0.00 | 0.00 | 35 | 1019.4 |
| 20260906000418 | 87 | 344 | 0.9 | 0.9 | 0.00 | 0.00 | 0.00 | 32 | 1019.5 |
| 20260905235412 | 87 | 338 | 0.0 | 0.0 | 0.00 | 0.00 | 0.00 | 31 | 1019.5 |
| 20260905234408 | 88 | 345 | 0.0 | 0.0 | 0.00 | 0.00 | 0.00 | 37 | 1019.1 |
| 20260905233404 | 88 | 352 | 0.0 | 0.0 | 0.00 | 0.00 | 0.00 | 35 | 1018.9 |
| 20260905232359 | 90 | 348 | 0.0 | 0.0 | 0.00 | 0.00 | 0.00 | 31 | 1019.1 |
| 20260905231355 | 91 | 348 | 0.0 | 0.0 | 0.00 | 0.00 | 0.00 | 34 | 1018.8 |
| 20260905230355 | 92 | 350 | 0.0 | 0.0 | 0.00 | 0.00 | 0.00 | 35 | 1018.6 |
| 20260905225350 | 93 | 347 | 0.0 | 0.0 | 0.00 | 0.00 | 0.00 | 33 | 1018.3 |
| 20260905224347 | 94 | 331 | 0.0 | 0.0 | 0.00 | 0.00 | 0.00 | 25 | 1018.2 |
| 20260905223345 | 94 | 292 | 0.0 | 0.9 | 0.00 | 0.00 | 0.00 | 26 | 1018.3 |
| 20260905222344 | 91 | 2 | 0.9 | 0.9 | 0.00 | 0.00 | 0.00 | 31 | 1018.1 |
| 20260905221343 | 97 | 351 | 0.9 | 0.9 | 0.00 | 0.00 | 0.00 | 29 | 1018.1 |
| 20260905220340 | 97 | 23 | 0.9 | 0.9 | 0.00 | 0.00 | 0.00 | 26 | 1018.2 |
| 20260905215335 | 98 | 35 | 1.7 | 2.6 | 0.00 | 0.00 | 0.00 | 24 | 1018.7 |
| 20260905214332 | 100 | 357 | 0.9 | 0.9 | 0.00 | 0.00 | 0.00 | 24 | 1018.3 |
| 20260905213329 | 100 | 37 | 0.0 | 0.9 | 0.00 | 0.00 | 0.00 | 24 | 1018.7 |